This is the latest recevied weather packets stored in our database for station/object N6DZK. If no packets are shown the sender has not sent any weather packets the latest 10 day(s).
| Time | Temp. | Humidity | Pressure | Rain* | Wind** | Luminosity | Snow |
|---|---|---|---|---|---|---|---|
| 1777391577 | 15° C | 72% | 1020.3 hPa | 0 mm | - | 383 W/m² | - |
| 1777391274 | 15° C | 68% | 1020.4 hPa | 0 mm | - | 342 W/m² | - |
| 1777390970 | 14.44° C | 71% | 1020.3 hPa | 0 mm | - | 365 W/m² | - |
| 1777390666 | 14.44° C | 70% | 1020.3 hPa | 0 mm | - | 346 W/m² | - |
| 1777390364 | 14.44° C | 69% | 1020.3 hPa | 0 mm | - | 322 W/m² | - |
| 1777390059 | 14.44° C | 70% | 1020.3 hPa | 0 mm | - | 298 W/m² | - |
| 1777389756 | 14.44° C | 72% | 1020.4 hPa | 0 mm | - | 259 W/m² | - |
| 1777389452 | 14.44° C | 71% | 1020.3 hPa | 0 mm | - | 227 W/m² | - |
| 1777389151 | 13.33° C | 74% | 1020.6 hPa | 0 mm | - | 192 W/m² | - |
| 1777388848 | 12.78° C | 77% | 1020.5 hPa | 0 mm | - | 178 W/m² | - |
| 1777388545 | 12.22° C | 81% | 1020.3 hPa | 0 mm | - | 163 W/m² | - |
| 1777388240 | 11.67° C | 86% | 1020.4 hPa | 0 mm | - | 153 W/m² | - |
| 1777387935 | 11.11° C | 96% | 1020.4 hPa | 0 mm | - | 141 W/m² | - |
| 1777387632 | 10° C | 97% | 1020.4 hPa | 0 mm | - | 200 W/m² | - |
| 1777387329 | 10° C | 98% | 1020.3 hPa | 0 mm | - | 149 W/m² | - |
| 1777387028 | 9.44° C | 98% | 1020.4 hPa | 0 mm | - | 145 W/m² | - |
| 1777386725 | 8.33° C | 98% | 1020.3 hPa | 0 mm | - | 137 W/m² | - |
| 1777386422 | 7.78° C | 98% | 1020.3 hPa | 0 mm | - | 98 W/m² | - |
| 1777386119 | 7.22° C | 98% | 1020.4 hPa | 0 mm | - | 92 W/m² | - |
| 1777385815 | 7.22° C | 98% | 1020.2 hPa | 0 mm | - | 78 W/m² | - |
| 1777385513 | 7.22° C | 98% | 1020.3 hPa | 0 mm | - | 64 W/m² | - |
| 1777385210 | 6.67° C | 98% | 1020.1 hPa | 0 mm | - | 60 W/m² | - |
| 1777384905 | 5.56° C | 97% | 1020.3 hPa | 0 mm | - | 62 W/m² | - |
| 1777384603 | 5° C | 97% | 1020.3 hPa | 0 mm | - | 48 W/m² | - |
| 1777384303 | 5° C | 97% | 1020 hPa | 0 mm | - | 33 W/m² | - |
* Rain latest hour (hover to see other rain measurements)
** Current wind speed in m/s (hover to see current wind gust speed)